sensor_id;sensor_type;location;lat;lon;timestamp;temperature;humidity
4505;DHT22;2265;48.794;9.520;2023-08-31T00:02:13;15.80;98.00
4505;DHT22;2265;48.794;9.520;2023-08-31T00:04:40;15.80;98.00
4505;DHT22;2265;48.794;9.520;2023-08-31T00:07:07;15.80;98.00
4505;DHT22;2265;48.794;9.520;2023-08-31T00:09:34;15.70;98.00
4505;DHT22;2265;48.794;9.520;2023-08-31T00:12:03;15.60;98.00
4505;DHT22;2265;48.794;9.520;2023-08-31T00:14:30;15.50;98.00
4505;DHT22;2265;48.794;9.520;2023-08-31T00:16:58;15.50;98.00
4505;DHT22;2265;48.794;9.520;2023-08-31T00:19:25;15.70;98.00
4505;DHT22;2265;48.794;9.520;2023-08-31T00:21:52;15.60;98.00
4505;DHT22;2265;48.794;9.520;2023-08-31T00:24:19;15.70;98.00
4505;DHT22;2265;48.794;9.520;2023-08-31T00:26:48;15.50;98.00
4505;DHT22;2265;48.794;9.520;2023-08-31T00:29:18;15.50;98.00
4505;DHT22;2265;48.794;9.520;2023-08-31T00:31:45;15.40;98.00
4505;DHT22;2265;48.794;9.520;2023-08-31T00:34:13;15.40;98.00
4505;DHT22;2265;48.794;9.520;2023-08-31T00:36:43;15.40;98.00
4505;DHT22;2265;48.794;9.520;2023-08-31T00:39:10;15.40;98.00
4505;DHT22;2265;48.794;9.520;2023-08-31T00:41:37;15.30;98.00
4505;DHT22;2265;48.794;9.520;2023-08-31T00:44:05;15.40;98.00
4505;DHT22;2265;48.794;9.520;2023-08-31T00:46:34;15.30;98.00
4505;DHT22;2265;48.794;9.520;2023-08-31T00:49:03;15.30;98.00
4505;DHT22;2265;48.794;9.520;2023-08-31T00:51:30;15.30;98.00
4505;DHT22;2265;48.794;9.520;2023-08-31T00:53:58;15.40;98.00
4505;DHT22;2265;48.794;9.520;2023-08-31T00:56:26;15.30;98.00
4505;DHT22;2265;48.794;9.520;2023-08-31T00:58:53;15.20;98.00
4505;DHT22;2265;48.794;9.520;2023-08-31T01:01:26;15.30;98.00
4505;DHT22;2265;48.794;9.520;2023-08-31T01:04:14;15.30;98.00
4505;DHT22;2265;48.794;9.520;2023-08-31T01:06:50;15.40;98.00
4505;DHT22;2265;48.794;9.520;2023-08-31T01:09:36;15.30;98.00
4505;DHT22;2265;48.794;9.520;2023-08-31T01:12:10;15.30;98.00
4505;DHT22;2265;48.794;9.520;2023-08-31T01:14:44;15.30;98.00
4505;DHT22;2265;48.794;9.520;2023-08-31T01:17:13;15.30;98.00
4505;DHT22;2265;48.794;9.520;2023-08-31T01:19:48;15.30;98.00
4505;DHT22;2265;48.794;9.520;2023-08-31T01:22:21;15.20;98.00
4505;DHT22;2265;48.794;9.520;2023-08-31T01:24:53;15.30;98.00
4505;DHT22;2265;48.794;9.520;2023-08-31T01:27:21;15.20;98.00
4505;DHT22;2265;48.794;9.520;2023-08-31T01:29:48;15.20;98.00
4505;DHT22;2265;48.794;9.520;2023-08-31T01:32:15;15.10;98.00
4505;DHT22;2265;48.794;9.520;2023-08-31T01:34:42;14.90;98.00
4505;DHT22;2265;48.794;9.520;2023-08-31T01:37:15;14.90;98.00
4505;DHT22;2265;48.794;9.520;2023-08-31T01:39:48;14.90;98.00
4505;DHT22;2265;48.794;9.520;2023-08-31T01:42:18;14.60;98.00
4505;DHT22;2265;48.794;9.520;2023-08-31T01:44:47;14.50;98.00
4505;DHT22;2265;48.794;9.520;2023-08-31T01:47:15;14.40;98.00
4505;DHT22;2265;48.794;9.520;2023-08-31T01:49:45;14.40;98.00
4505;DHT22;2265;48.794;9.520;2023-08-31T01:52:12;14.40;98.00
4505;DHT22;2265;48.794;9.520;2023-08-31T01:54:39;14.50;98.00
4505;DHT22;2265;48.794;9.520;2023-08-31T01:57:06;14.50;98.00
4505;DHT22;2265;48.794;9.520;2023-08-31T01:59:35;14.50;98.00
4505;DHT22;2265;48.794;9.520;2023-08-31T02:02:03;14.60;98.00
4505;DHT22;2265;48.794;9.520;2023-08-31T02:04:31;14.60;98.00
4505;DHT22;2265;48.794;9.520;2023-08-31T02:06:58;14.50;98.00
4505;DHT22;2265;48.794;9.520;2023-08-31T02:09:25;14.50;98.00
4505;DHT22;2265;48.794;9.520;2023-08-31T02:11:52;14.70;98.00
4505;DHT22;2265;48.794;9.520;2023-08-31T02:14:19;14.80;98.00
4505;DHT22;2265;48.794;9.520;2023-08-31T02:16:48;14.80;98.00
4505;DHT22;2265;48.794;9.520;2023-08-31T02:19:15;14.80;98.00
4505;DHT22;2265;48.794;9.520;2023-08-31T02:21:42;14.70;98.00
4505;DHT22;2265;48.794;9.520;2023-08-31T02:24:09;14.70;98.00
4505;DHT22;2265;48.794;9.520;2023-08-31T02:26:36;14.70;98.00
4505;DHT22;2265;48.794;9.520;2023-08-31T02:29:04;14.60;98.00
4505;DHT22;2265;48.794;9.520;2023-08-31T02:31:31;14.70;98.00
4505;DHT22;2265;48.794;9.520;2023-08-31T02:33:59;14.70;98.00
4505;DHT22;2265;48.794;9.520;2023-08-31T02:36:28;14.70;98.00
4505;DHT22;2265;48.794;9.520;2023-08-31T02:38:56;14.70;98.00
4505;DHT22;2265;48.794;9.520;2023-08-31T02:41:23;14.70;98.00
4505;DHT22;2265;48.794;9.520;2023-08-31T02:43:50;14.70;98.00
4505;DHT22;2265;48.794;9.520;2023-08-31T02:46:18;14.70;98.00
4505;DHT22;2265;48.794;9.520;2023-08-31T02:48:45;14.70;98.00
4505;DHT22;2265;48.794;9.520;2023-08-31T02:51:13;14.60;98.00
4505;DHT22;2265;48.794;9.520;2023-08-31T02:53:40;14.60;98.00
4505;DHT22;2265;48.794;9.520;2023-08-31T02:56:07;14.70;98.00
4505;DHT22;2265;48.794;9.520;2023-08-31T02:58:34;14.60;98.00
4505;DHT22;2265;48.794;9.520;2023-08-31T03:01:08;14.70;98.00
4505;DHT22;2265;48.794;9.520;2023-08-31T03:03:37;14.80;98.00
4505;DHT22;2265;48.794;9.520;2023-08-31T03:06:05;14.80;98.00
4505;DHT22;2265;48.794;9.520;2023-08-31T03:08:34;14.90;98.00
4505;DHT22;2265;48.794;9.520;2023-08-31T03:11:02;15.00;98.00
4505;DHT22;2265;48.794;9.520;2023-08-31T03:13:29;15.00;98.00
4505;DHT22;2265;48.794;9.520;2023-08-31T03:15:56;15.00;98.00
4505;DHT22;2265;48.794;9.520;2023-08-31T03:18:23;15.00;98.00
4505;DHT22;2265;48.794;9.520;2023-08-31T03:20:50;14.90;98.00
4505;DHT22;2265;48.794;9.520;2023-08-31T03:23:17;14.90;98.00
4505;DHT22;2265;48.794;9.520;2023-08-31T03:25:46;14.80;98.00
4505;DHT22;2265;48.794;9.520;2023-08-31T03:28:13;14.80;98.00
4505;DHT22;2265;48.794;9.520;2023-08-31T03:30:40;14.60;98.00
4505;DHT22;2265;48.794;9.520;2023-08-31T03:33:07;14.60;98.00
4505;DHT22;2265;48.794;9.520;2023-08-31T03:35:34;14.50;98.00
4505;DHT22;2265;48.794;9.520;2023-08-31T03:38:02;14.60;98.00
4505;DHT22;2265;48.794;9.520;2023-08-31T03:40:30;14.60;98.00
4505;DHT22;2265;48.794;9.520;2023-08-31T03:42:59;14.50;98.00
4505;DHT22;2265;48.794;9.520;2023-08-31T03:45:26;14.50;98.00
4505;DHT22;2265;48.794;9.520;2023-08-31T03:47:53;14.60;98.00
4505;DHT22;2265;48.794;9.520;2023-08-31T03:50:20;14.60;98.00
4505;DHT22;2265;48.794;9.520;2023-08-31T03:52:47;14.70;98.00
4505;DHT22;2265;48.794;9.520;2023-08-31T03:55:15;14.70;98.00
4505;DHT22;2265;48.794;9.520;2023-08-31T03:57:43;14.70;98.00
4505;DHT22;2265;48.794;9.520;2023-08-31T04:00:13;14.70;98.00
4505;DHT22;2265;48.794;9.520;2023-08-31T04:02:42;14.60;98.00
4505;DHT22;2265;48.794;9.520;2023-08-31T04:05:09;14.60;98.00
4505;DHT22;2265;48.794;9.520;2023-08-31T04:07:36;14.60;98.00
4505;DHT22;2265;48.794;9.520;2023-08-31T04:10:04;14.60;98.00
4505;DHT22;2265;48.794;9.520;2023-08-31T04:12:31;14.60;98.00
4505;DHT22;2265;48.794;9.520;2023-08-31T04:14:58;14.50;98.00
4505;DHT22;2265;48.794;9.520;2023-08-31T04:17:27;14.50;98.00
4505;DHT22;2265;48.794;9.520;2023-08-31T04:19:54;14.50;98.00
4505;DHT22;2265;48.794;9.520;2023-08-31T04:22:21;14.50;98.00
4505;DHT22;2265;48.794;9.520;2023-08-31T04:24:48;14.60;98.00
4505;DHT22;2265;48.794;9.520;2023-08-31T04:27:15;14.60;98.00
4505;DHT22;2265;48.794;9.520;2023-08-31T04:29:43;14.60;98.00
4505;DHT22;2265;48.794;9.520;2023-08-31T04:32:11;14.80;98.00
4505;DHT22;2265;48.794;9.520;2023-08-31T04:34:40;14.70;98.00
4505;DHT22;2265;48.794;9.520;2023-08-31T04:37:07;14.70;98.00
4505;DHT22;2265;48.794;9.520;2023-08-31T04:39:35;14.60;98.00
4505;DHT22;2265;48.794;9.520;2023-08-31T04:42:02;14.60;98.00
4505;DHT22;2265;48.794;9.520;2023-08-31T04:44:30;14.70;98.00
4505;DHT22;2265;48.794;9.520;2023-08-31T04:46:57;14.60;98.00
4505;DHT22;2265;48.794;9.520;2023-08-31T04:49:24;14.50;98.00
4505;DHT22;2265;48.794;9.520;2023-08-31T04:51:53;14.30;98.00
4505;DHT22;2265;48.794;9.520;2023-08-31T04:54:20;14.20;98.00
4505;DHT22;2265;48.794;9.520;2023-08-31T04:56:47;14.10;98.00
4505;DHT22;2265;48.794;9.520;2023-08-31T04:59:14;14.10;98.00
4505;DHT22;2265;48.794;9.520;2023-08-31T05:01:41;14.20;98.00
4505;DHT22;2265;48.794;9.520;2023-08-31T05:04:08;14.10;98.00
4505;DHT22;2265;48.794;9.520;2023-08-31T05:06:35;14.10;98.00
4505;DHT22;2265;48.794;9.520;2023-08-31T05:09:04;14.20;98.00
4505;DHT22;2265;48.794;9.520;2023-08-31T05:11:31;14.10;98.00
4505;DHT22;2265;48.794;9.520;2023-08-31T05:13:59;14.10;98.00
4505;DHT22;2265;48.794;9.520;2023-08-31T05:16:26;14.20;98.00
4505;DHT22;2265;48.794;9.520;2023-08-31T05:18:54;14.20;98.00
4505;DHT22;2265;48.794;9.520;2023-08-31T05:21:21;14.30;98.00
4505;DHT22;2265;48.794;9.520;2023-08-31T05:23:48;14.30;98.00
4505;DHT22;2265;48.794;9.520;2023-08-31T05:26:16;14.30;98.00
4505;DHT22;2265;48.794;9.520;2023-08-31T05:28:43;14.30;98.00
4505;DHT22;2265;48.794;9.520;2023-08-31T05:31:10;14.50;98.00
4505;DHT22;2265;48.794;9.520;2023-08-31T05:33:37;14.60;98.00
4505;DHT22;2265;48.794;9.520;2023-08-31T05:36:05;14.70;98.00
4505;DHT22;2265;48.794;9.520;2023-08-31T05:38:32;14.80;98.00
4505;DHT22;2265;48.794;9.520;2023-08-31T05:41:06;15.10;98.00
4505;DHT22;2265;48.794;9.520;2023-08-31T05:43:36;15.10;98.00
4505;DHT22;2265;48.794;9.520;2023-08-31T05:46:05;15.10;98.00
4505;DHT22;2265;48.794;9.520;2023-08-31T05:48:32;15.20;98.00
4505;DHT22;2265;48.794;9.520;2023-08-31T05:51:00;15.10;98.00
4505;DHT22;2265;48.794;9.520;2023-08-31T05:53:27;15.10;98.00
4505;DHT22;2265;48.794;9.520;2023-08-31T05:55:55;15.00;98.00
4505;DHT22;2265;48.794;9.520;2023-08-31T05:58:28;15.20;98.00
4505;DHT22;2265;48.794;9.520;2023-08-31T06:00:57;15.10;98.00
4505;DHT22;2265;48.794;9.520;2023-08-31T06:03:24;15.20;98.00
4505;DHT22;2265;48.794;9.520;2023-08-31T06:05:51;15.20;98.00
4505;DHT22;2265;48.794;9.520;2023-08-31T06:08:18;15.20;98.00
4505;DHT22;2265;48.794;9.520;2023-08-31T06:10:45;15.30;98.00
4505;DHT22;2265;48.794;9.520;2023-08-31T06:13:12;15.30;98.00
4505;DHT22;2265;48.794;9.520;2023-08-31T06:15:39;15.40;98.00
4505;DHT22;2265;48.794;9.520;2023-08-31T06:18:08;15.50;98.00
4505;DHT22;2265;48.794;9.520;2023-08-31T06:20:35;15.60;98.00
4505;DHT22;2265;48.794;9.520;2023-08-31T06:23:02;15.60;98.00
4505;DHT22;2265;48.794;9.520;2023-08-31T06:25:30;15.70;98.00
4505;DHT22;2265;48.794;9.520;2023-08-31T06:27:57;15.70;98.00
4505;DHT22;2265;48.794;9.520;2023-08-31T06:30:24;15.60;98.00
4505;DHT22;2265;48.794;9.520;2023-08-31T06:32:51;15.60;98.00
4505;DHT22;2265;48.794;9.520;2023-08-31T06:35:20;15.60;98.00
4505;DHT22;2265;48.794;9.520;2023-08-31T06:37:47;15.60;98.00
4505;DHT22;2265;48.794;9.520;2023-08-31T06:40:16;15.70;98.00
4505;DHT22;2265;48.794;9.520;2023-08-31T06:42:43;15.80;98.00
4505;DHT22;2265;48.794;9.520;2023-08-31T06:45:11;15.80;98.00
4505;DHT22;2265;48.794;9.520;2023-08-31T06:47:38;15.80;98.00
4505;DHT22;2265;48.794;9.520;2023-08-31T06:50:05;16.00;98.00
4505;DHT22;2265;48.794;9.520;2023-08-31T06:52:34;16.00;98.00
4505;DHT22;2265;48.794;9.520;2023-08-31T06:55:02;16.10;98.00
4505;DHT22;2265;48.794;9.520;2023-08-31T06:57:31;16.30;98.00
4505;DHT22;2265;48.794;9.520;2023-08-31T06:59:58;16.40;98.00
4505;DHT22;2265;48.794;9.520;2023-08-31T07:02:26;16.50;98.00
4505;DHT22;2265;48.794;9.520;2023-08-31T07:04:53;16.40;98.00
4505;DHT22;2265;48.794;9.520;2023-08-31T07:07:20;16.40;98.00
4505;DHT22;2265;48.794;9.520;2023-08-31T07:09:49;16.30;98.00
4505;DHT22;2265;48.794;9.520;2023-08-31T07:12:16;16.20;98.00
4505;DHT22;2265;48.794;9.520;2023-08-31T07:14:43;16.20;98.00
4505;DHT22;2265;48.794;9.520;2023-08-31T07:17:10;16.30;98.00
4505;DHT22;2265;48.794;9.520;2023-08-31T07:19:37;16.30;98.00
4505;DHT22;2265;48.794;9.520;2023-08-31T07:22:05;16.20;98.00
4505;DHT22;2265;48.794;9.520;2023-08-31T07:24:32;16.10;98.00
4505;DHT22;2265;48.794;9.520;2023-08-31T07:27:02;16.00;98.00
4505;DHT22;2265;48.794;9.520;2023-08-31T07:29:32;16.00;98.00
4505;DHT22;2265;48.794;9.520;2023-08-31T07:32:03;16.00;98.00
4505;DHT22;2265;48.794;9.520;2023-08-31T07:34:30;16.00;98.00
4505;DHT22;2265;48.794;9.520;2023-08-31T07:36:57;16.10;98.00
4505;DHT22;2265;48.794;9.520;2023-08-31T07:39:24;16.30;98.00
4505;DHT22;2265;48.794;9.520;2023-08-31T07:41:53;16.50;98.00
4505;DHT22;2265;48.794;9.520;2023-08-31T07:44:23;16.60;98.00
4505;DHT22;2265;48.794;9.520;2023-08-31T07:46:51;16.70;98.00
4505;DHT22;2265;48.794;9.520;2023-08-31T07:49:18;16.80;98.00
4505;DHT22;2265;48.794;9.520;2023-08-31T07:51:46;16.90;98.00
4505;DHT22;2265;48.794;9.520;2023-08-31T07:54:19;16.80;98.00
4505;DHT22;2265;48.794;9.520;2023-08-31T07:56:46;16.90;98.00
4505;DHT22;2265;48.794;9.520;2023-08-31T07:59:13;16.80;98.00
4505;DHT22;2265;48.794;9.520;2023-08-31T08:01:43;16.80;98.00
4505;DHT22;2265;48.794;9.520;2023-08-31T08:04:11;17.00;98.00
4505;DHT22;2265;48.794;9.520;2023-08-31T08:06:38;17.00;98.00
4505;DHT22;2265;48.794;9.520;2023-08-31T08:09:05;17.00;98.00
4505;DHT22;2265;48.794;9.520;2023-08-31T08:11:34;17.00;98.00
4505;DHT22;2265;48.794;9.520;2023-08-31T08:14:02;17.00;98.00
4505;DHT22;2265;48.794;9.520;2023-08-31T08:16:30;17.10;98.00
4505;DHT22;2265;48.794;9.520;2023-08-31T08:18:59;17.00;98.00
4505;DHT22;2265;48.794;9.520;2023-08-31T08:21:26;16.80;98.00
4505;DHT22;2265;48.794;9.520;2023-08-31T08:23:53;16.90;98.00
4505;DHT22;2265;48.794;9.520;2023-08-31T08:26:20;16.90;98.00
4505;DHT22;2265;48.794;9.520;2023-08-31T08:28:47;17.00;98.00
4505;DHT22;2265;48.794;9.520;2023-08-31T08:31:14;17.00;98.00
4505;DHT22;2265;48.794;9.520;2023-08-31T08:33:41;17.20;98.00
4505;DHT22;2265;48.794;9.520;2023-08-31T08:36:10;17.30;98.00
4505;DHT22;2265;48.794;9.520;2023-08-31T08:38:38;17.40;98.00
4505;DHT22;2265;48.794;9.520;2023-08-31T08:41:05;17.60;98.00
4505;DHT22;2265;48.794;9.520;2023-08-31T08:43:33;17.60;98.00
4505;DHT22;2265;48.794;9.520;2023-08-31T08:46:05;17.80;98.00
4505;DHT22;2265;48.794;9.520;2023-08-31T08:48:34;18.00;98.00
4505;DHT22;2265;48.794;9.520;2023-08-31T08:51:03;18.20;98.00
4505;DHT22;2265;48.794;9.520;2023-08-31T08:53:32;18.40;98.00
4505;DHT22;2265;48.794;9.520;2023-08-31T08:55:59;18.60;98.00
4505;DHT22;2265;48.794;9.520;2023-08-31T08:58:26;18.70;98.00
4505;DHT22;2265;48.794;9.520;2023-08-31T09:00:55;18.60;98.00
4505;DHT22;2265;48.794;9.520;2023-08-31T09:03:23;18.60;98.00
4505;DHT22;2265;48.794;9.520;2023-08-31T09:05:50;18.40;98.00
4505;DHT22;2265;48.794;9.520;2023-08-31T09:08:17;18.30;98.00
4505;DHT22;2265;48.794;9.520;2023-08-31T09:10:55;18.20;98.00
4505;DHT22;2265;48.794;9.520;2023-08-31T09:13:26;18.20;98.00
4505;DHT22;2265;48.794;9.520;2023-08-31T09:15:53;18.10;98.00
4505;DHT22;2265;48.794;9.520;2023-08-31T09:18:24;18.10;98.00
4505;DHT22;2265;48.794;9.520;2023-08-31T09:20:51;18.10;98.00
4505;DHT22;2265;48.794;9.520;2023-08-31T09:23:19;18.20;98.00
4505;DHT22;2265;48.794;9.520;2023-08-31T09:25:48;18.20;98.00
4505;DHT22;2265;48.794;9.520;2023-08-31T09:28:19;18.20;98.00
4505;DHT22;2265;48.794;9.520;2023-08-31T09:30:48;18.30;98.00
4505;DHT22;2265;48.794;9.520;2023-08-31T09:33:16;18.40;98.00
4505;DHT22;2265;48.794;9.520;2023-08-31T09:35:51;18.30;98.00
4505;DHT22;2265;48.794;9.520;2023-08-31T09:38:19;18.20;98.00
4505;DHT22;2265;48.794;9.520;2023-08-31T09:40:47;18.30;98.00
4505;DHT22;2265;48.794;9.520;2023-08-31T09:43:20;18.40;98.00
4505;DHT22;2265;48.794;9.520;2023-08-31T09:45:50;18.90;98.00
4505;DHT22;2265;48.794;9.520;2023-08-31T09:48:19;19.30;98.00
4505;DHT22;2265;48.794;9.520;2023-08-31T09:50:47;19.60;98.00
4505;DHT22;2265;48.794;9.520;2023-08-31T09:53:17;19.90;98.00
4505;DHT22;2265;48.794;9.520;2023-08-31T09:55:47;20.10;98.00
4505;DHT22;2265;48.794;9.520;2023-08-31T09:58:17;19.90;98.00
4505;DHT22;2265;48.794;9.520;2023-08-31T10:00:49;19.70;98.00
4505;DHT22;2265;48.794;9.520;2023-08-31T10:03:16;19.50;98.00
4505;DHT22;2265;48.794;9.520;2023-08-31T10:05:44;19.50;98.00
4505;DHT22;2265;48.794;9.520;2023-08-31T10:08:12;19.30;98.00
4505;DHT22;2265;48.794;9.520;2023-08-31T10:10:40;19.20;98.00
4505;DHT22;2265;48.794;9.520;2023-08-31T10:13:07;19.20;98.00
4505;DHT22;2265;48.794;9.520;2023-08-31T10:15:37;19.30;98.00
4505;DHT22;2265;48.794;9.520;2023-08-31T10:18:07;19.40;98.00
4505;DHT22;2265;48.794;9.520;2023-08-31T10:20:34;19.30;98.00
4505;DHT22;2265;48.794;9.520;2023-08-31T10:23:03;19.30;98.00
4505;DHT22;2265;48.794;9.520;2023-08-31T10:26:00;19.30;98.00
4505;DHT22;2265;48.794;9.520;2023-08-31T10:28:29;19.30;98.00
4505;DHT22;2265;48.794;9.520;2023-08-31T10:31:04;19.40;98.00
4505;DHT22;2265;48.794;9.520;2023-08-31T10:33:34;19.70;98.00
4505;DHT22;2265;48.794;9.520;2023-08-31T10:36:02;20.00;98.00
4505;DHT22;2265;48.794;9.520;2023-08-31T10:38:30;20.40;98.00
4505;DHT22;2265;48.794;9.520;2023-08-31T10:43:45;20.90;98.00
4505;DHT22;2265;48.794;9.520;2023-08-31T10:46:24;20.80;98.00
4505;DHT22;2265;48.794;9.520;2023-08-31T10:48:57;20.60;98.00
4505;DHT22;2265;48.794;9.520;2023-08-31T10:51:25;20.50;98.00
4505;DHT22;2265;48.794;9.520;2023-08-31T10:54:03;20.40;98.00
4505;DHT22;2265;48.794;9.520;2023-08-31T10:56:33;20.50;98.00
4505;DHT22;2265;48.794;9.520;2023-08-31T10:59:01;21.00;98.00
4505;DHT22;2265;48.794;9.520;2023-08-31T11:01:56;21.20;96.40
4505;DHT22;2265;48.794;9.520;2023-08-31T11:04:27;21.10;96.30
4505;DHT22;2265;48.794;9.520;2023-08-31T11:07:13;20.90;96.40
4505;DHT22;2265;48.794;9.520;2023-08-31T11:09:41;20.50;97.50
4505;DHT22;2265;48.794;9.520;2023-08-31T11:12:08;20.20;98.00
4505;DHT22;2265;48.794;9.520;2023-08-31T11:14:36;19.90;97.70
4505;DHT22;2265;48.794;9.520;2023-08-31T11:17:04;19.60;98.00
4505;DHT22;2265;48.794;9.520;2023-08-31T11:19:32;19.40;98.00
4505;DHT22;2265;48.794;9.520;2023-08-31T11:22:01;19.40;98.00
4505;DHT22;2265;48.794;9.520;2023-08-31T11:24:29;19.40;98.00
4505;DHT22;2265;48.794;9.520;2023-08-31T11:26:57;19.60;98.00
4505;DHT22;2265;48.794;9.520;2023-08-31T11:29:24;20.20;98.00
4505;DHT22;2265;48.794;9.520;2023-08-31T11:31:51;21.00;98.00
4505;DHT22;2265;48.794;9.520;2023-08-31T11:34:18;21.30;98.00
4505;DHT22;2265;48.794;9.520;2023-08-31T11:36:47;21.50;95.70
4505;DHT22;2265;48.794;9.520;2023-08-31T11:39:17;21.50;95.00
4505;DHT22;2265;48.794;9.520;2023-08-31T11:41:44;21.30;97.20
4505;DHT22;2265;48.794;9.520;2023-08-31T11:44:14;21.10;95.70
4505;DHT22;2265;48.794;9.520;2023-08-31T11:46:44;20.80;98.00
4505;DHT22;2265;48.794;9.520;2023-08-31T11:49:14;20.80;98.00
4505;DHT22;2265;48.794;9.520;2023-08-31T11:51:42;20.90;98.00
4505;DHT22;2265;48.794;9.520;2023-08-31T11:54:11;20.90;97.30
4505;DHT22;2265;48.794;9.520;2023-08-31T11:56:39;20.80;98.00
4505;DHT22;2265;48.794;9.520;2023-08-31T11:59:09;20.80;98.00
4505;DHT22;2265;48.794;9.520;2023-08-31T12:01:40;20.70;98.00
4505;DHT22;2265;48.794;9.520;2023-08-31T12:04:14;20.60;97.30
4505;DHT22;2265;48.794;9.520;2023-08-31T12:06:42;20.70;97.40
4505;DHT22;2265;48.794;9.520;2023-08-31T12:09:14;20.80;97.70
4505;DHT22;2265;48.794;9.520;2023-08-31T12:11:41;20.80;97.10
4505;DHT22;2265;48.794;9.520;2023-08-31T12:14:19;20.70;97.60
4505;DHT22;2265;48.794;9.520;2023-08-31T12:16:51;20.80;98.00
4505;DHT22;2265;48.794;9.520;2023-08-31T12:19:27;21.10;97.60
4505;DHT22;2265;48.794;9.520;2023-08-31T12:21:54;21.10;98.00
4505;DHT22;2265;48.794;9.520;2023-08-31T12:24:25;21.10;96.70
4505;DHT22;2265;48.794;9.520;2023-08-31T12:26:52;21.00;95.10
4505;DHT22;2265;48.794;9.520;2023-08-31T12:29:20;20.80;95.20
4505;DHT22;2265;48.794;9.520;2023-08-31T12:31:48;20.90;97.60
4505;DHT22;2265;48.794;9.520;2023-08-31T12:34:16;21.00;97.10
4505;DHT22;2265;48.794;9.520;2023-08-31T12:36:43;21.20;98.00
4505;DHT22;2265;48.794;9.520;2023-08-31T12:39:11;21.20;96.50
4505;DHT22;2265;48.794;9.520;2023-08-31T12:41:40;21.20;98.00
4505;DHT22;2265;48.794;9.520;2023-08-31T12:44:08;21.10;98.00
4505;DHT22;2265;48.794;9.520;2023-08-31T12:46:35;21.10;97.00
4505;DHT22;2265;48.794;9.520;2023-08-31T12:49:02;21.20;98.00
4505;DHT22;2265;48.794;9.520;2023-08-31T12:51:30;21.10;98.00
4505;DHT22;2265;48.794;9.520;2023-08-31T12:53:57;21.20;98.00
4505;DHT22;2265;48.794;9.520;2023-08-31T12:56:24;21.10;98.00
4505;DHT22;2265;48.794;9.520;2023-08-31T12:58:53;21.00;98.00
4505;DHT22;2265;48.794;9.520;2023-08-31T13:01:21;21.00;98.00
4505;DHT22;2265;48.794;9.520;2023-08-31T13:03:49;21.00;98.00
4505;DHT22;2265;48.794;9.520;2023-08-31T13:06:18;20.90;98.00
4505;DHT22;2265;48.794;9.520;2023-08-31T13:08:45;20.80;97.80
4505;DHT22;2265;48.794;9.520;2023-08-31T13:11:12;20.60;98.00
4505;DHT22;2265;48.794;9.520;2023-08-31T13:13:40;20.60;98.00
4505;DHT22;2265;48.794;9.520;2023-08-31T13:16:09;20.50;98.00
4505;DHT22;2265;48.794;9.520;2023-08-31T13:18:36;20.70;98.00
4505;DHT22;2265;48.794;9.520;2023-08-31T13:21:03;21.00;98.00
4505;DHT22;2265;48.794;9.520;2023-08-31T13:23:30;21.30;98.00
4505;DHT22;2265;48.794;9.520;2023-08-31T13:25:57;21.40;98.00
4505;DHT22;2265;48.794;9.520;2023-08-31T13:28:24;21.20;98.00
4505;DHT22;2265;48.794;9.520;2023-08-31T13:30:55;21.20;98.00
4505;DHT22;2265;48.794;9.520;2023-08-31T13:33:24;21.30;98.00
4505;DHT22;2265;48.794;9.520;2023-08-31T13:35:51;21.50;98.00
4505;DHT22;2265;48.794;9.520;2023-08-31T13:38:18;21.50;98.00
4505;DHT22;2265;48.794;9.520;2023-08-31T13:40:45;21.60;98.00
4505;DHT22;2265;48.794;9.520;2023-08-31T13:43:12;21.60;98.00
4505;DHT22;2265;48.794;9.520;2023-08-31T13:45:40;21.70;98.00
4505;DHT22;2265;48.794;9.520;2023-08-31T13:48:07;21.70;98.00
4505;DHT22;2265;48.794;9.520;2023-08-31T13:50:38;21.90;98.00
4505;DHT22;2265;48.794;9.520;2023-08-31T13:53:05;22.00;98.00
4505;DHT22;2265;48.794;9.520;2023-08-31T13:55:32;22.40;98.00
4505;DHT22;2265;48.794;9.520;2023-08-31T13:58:04;23.20;98.00
4505;DHT22;2265;48.794;9.520;2023-08-31T14:00:33;24.00;98.00
4505;DHT22;2265;48.794;9.520;2023-08-31T14:03:00;24.50;98.00
4505;DHT22;2265;48.794;9.520;2023-08-31T14:05:28;24.80;95.50
4505;DHT22;2265;48.794;9.520;2023-08-31T14:07:57;24.80;93.20
4505;DHT22;2265;48.794;9.520;2023-08-31T14:10:27;25.40;92.40
4505;DHT22;2265;48.794;9.520;2023-08-31T14:12:54;25.10;89.30
4505;DHT22;2265;48.794;9.520;2023-08-31T14:15:23;25.50;89.80
4505;DHT22;2265;48.794;9.520;2023-08-31T14:17:51;25.30;90.00
4505;DHT22;2265;48.794;9.520;2023-08-31T14:20:19;24.70;89.50
4505;DHT22;2265;48.794;9.520;2023-08-31T14:22:46;24.40;93.70
4505;DHT22;2265;48.794;9.520;2023-08-31T14:25:14;24.00;91.20
4505;DHT22;2265;48.794;9.520;2023-08-31T14:27:42;23.50;93.70
4505;DHT22;2265;48.794;9.520;2023-08-31T14:30:10;23.10;98.00
4505;DHT22;2265;48.794;9.520;2023-08-31T14:32:37;22.90;97.90
4505;DHT22;2265;48.794;9.520;2023-08-31T14:35:07;22.60;98.00
4505;DHT22;2265;48.794;9.520;2023-08-31T14:37:34;22.30;98.00
4505;DHT22;2265;48.794;9.520;2023-08-31T14:40:01;22.10;98.00
4505;DHT22;2265;48.794;9.520;2023-08-31T14:42:30;21.80;98.00
4505;DHT22;2265;48.794;9.520;2023-08-31T14:44:57;21.50;98.00
4505;DHT22;2265;48.794;9.520;2023-08-31T14:47:24;21.20;98.00
4505;DHT22;2265;48.794;9.520;2023-08-31T14:49:51;21.00;98.00
4505;DHT22;2265;48.794;9.520;2023-08-31T14:52:18;20.80;98.00
4505;DHT22;2265;48.794;9.520;2023-08-31T14:54:48;20.70;98.00
4505;DHT22;2265;48.794;9.520;2023-08-31T14:57:16;20.60;98.00
4505;DHT22;2265;48.794;9.520;2023-08-31T14:59:45;20.60;98.00
4505;DHT22;2265;48.794;9.520;2023-08-31T15:02:12;20.60;98.00
4505;DHT22;2265;48.794;9.520;2023-08-31T15:04:42;20.40;98.00
4505;DHT22;2265;48.794;9.520;2023-08-31T15:07:11;20.40;98.00
4505;DHT22;2265;48.794;9.520;2023-08-31T15:09:38;20.30;98.00
4505;DHT22;2265;48.794;9.520;2023-08-31T15:12:05;20.30;98.00
4505;DHT22;2265;48.794;9.520;2023-08-31T15:14:32;20.30;98.00
4505;DHT22;2265;48.794;9.520;2023-08-31T15:17:00;20.30;98.00
4505;DHT22;2265;48.794;9.520;2023-08-31T15:19:28;20.30;98.00
4505;DHT22;2265;48.794;9.520;2023-08-31T15:21:55;20.20;98.00
4505;DHT22;2265;48.794;9.520;2023-08-31T15:24:22;20.30;98.00
4505;DHT22;2265;48.794;9.520;2023-08-31T15:26:49;20.20;98.00
4505;DHT22;2265;48.794;9.520;2023-08-31T15:29:16;20.10;98.00
4505;DHT22;2265;48.794;9.520;2023-08-31T15:31:45;19.90;98.00
4505;DHT22;2265;48.794;9.520;2023-08-31T15:34:14;19.80;98.00
4505;DHT22;2265;48.794;9.520;2023-08-31T15:36:41;19.80;98.00
4505;DHT22;2265;48.794;9.520;2023-08-31T15:39:08;19.90;98.00
4505;DHT22;2265;48.794;9.520;2023-08-31T15:41:38;19.70;98.00
4505;DHT22;2265;48.794;9.520;2023-08-31T15:44:06;19.70;98.00
4505;DHT22;2265;48.794;9.520;2023-08-31T15:46:36;19.60;98.00
4505;DHT22;2265;48.794;9.520;2023-08-31T15:49:03;19.70;98.00
4505;DHT22;2265;48.794;9.520;2023-08-31T15:51:32;19.70;98.00
4505;DHT22;2265;48.794;9.520;2023-08-31T15:53:59;19.60;98.00
4505;DHT22;2265;48.794;9.520;2023-08-31T15:56:30;19.60;98.00
4505;DHT22;2265;48.794;9.520;2023-08-31T15:58:58;19.60;98.00
4505;DHT22;2265;48.794;9.520;2023-08-31T16:01:25;19.60;98.00
4505;DHT22;2265;48.794;9.520;2023-08-31T16:03:53;19.60;98.00
4505;DHT22;2265;48.794;9.520;2023-08-31T16:06:20;19.70;98.00
4505;DHT22;2265;48.794;9.520;2023-08-31T16:08:52;19.60;98.00
4505;DHT22;2265;48.794;9.520;2023-08-31T16:11:19;19.60;98.00
4505;DHT22;2265;48.794;9.520;2023-08-31T16:13:50;19.50;98.00